Time;durP1;ratioP1;P1;durP2;ratioP2;P2;SDS_P1;SDS_P2;PMS_P1;PMS_P2;Temp;Humidity;BMP_temperature;BMP_pressure;BME280_temperature;BME280_humidity;BME280_pressure;Samples;Min_cycle;Max_cycle;Signal;HPM_P1;HPM_P2
2022/12/21 00:01:38;;;;;;;4.25;3.00;;;;;;;1.70;77.42;100260.94;5116251;28;20060;-65
2022/12/21 00:04:16;;;;;;;2.17;1.98;;;;;;;1.70;77.01;100260.06;5098530;28;20051;-65
2022/12/21 00:06:46;;;;;;;1.15;1.00;;;;;;;1.70;77.64;100247.50;5111976;28;20097;-65
2022/12/21 00:09:15;;;;;;;1.70;1.60;;;;;;;1.71;77.76;100244.16;5105746;28;20048;-65
2022/12/21 00:11:44;;;;;;;1.60;1.48;;;;;;;1.71;77.15;100249.19;5102254;28;20039;-66
2022/12/21 00:14:13;;;;;;;2.57;2.37;;;;;;;1.73;77.62;100237.53;5115376;28;20508;-65
2022/12/21 00:16:43;;;;;;;1.13;1.08;;;;;;;1.73;77.46;100243.44;5102007;28;20418;-65
2022/12/21 00:19:14;;;;;;;5.55;3.08;;;;;;;1.72;77.28;100240.88;5096544;28;20556;-65
2022/12/21 00:21:43;;;;;;;2.55;2.20;;;;;;;1.67;77.29;100238.16;5117382;27;20149;-65
2022/12/21 00:24:13;;;;;;;3.60;2.27;;;;;;;1.71;76.82;100244.16;5114494;28;20048;-65
2022/12/21 00:26:42;;;;;;;1.33;1.23;;;;;;;1.71;77.77;100241.66;5116051;28;20264;-65
2022/12/21 00:29:11;;;;;;;2.97;2.63;;;;;;;1.70;77.62;100237.44;5111848;28;20489;-65
2022/12/21 00:31:40;;;;;;;2.17;2.05;;;;;;;1.69;77.92;100230.66;5101963;28;20040;-66
2022/12/21 00:34:11;;;;;;;1.48;1.38;;;;;;;1.68;77.42;100239.03;5098552;28;20040;-65
2022/12/21 00:36:40;;;;;;;0.90;0.90;;;;;;;1.68;77.92;100228.97;5099520;28;20521;-66
2022/12/21 00:39:08;;;;;;;1.45;1.13;;;;;;;1.66;77.82;100221.34;5110666;28;20052;-65
2022/12/21 00:41:39;;;;;;;2.67;2.47;;;;;;;1.65;77.86;100213.75;5086788;28;20036;-65
2022/12/21 00:44:09;;;;;;;1.90;1.50;;;;;;;1.62;77.49;100209.44;5107033;28;20047;-66
2022/12/21 00:46:37;;;;;;;;;;;;;;;1.64;78.35;100227.09;5114784;28;20058;-65
2022/12/21 00:49:08;;;;;;;2.92;1.95;;;;;;;1.64;78.11;100237.16;5108285;28;19973;-65
2022/12/21 00:51:37;;;;;;;2.70;2.50;;;;;;;1.65;78.00;100233.88;5095016;28;20047;-65
2022/12/21 00:54:06;;;;;;;3.10;1.33;;;;;;;1.64;77.77;100227.97;5102232;28;20594;-65
2022/12/21 00:56:34;;;;;;;2.00;1.90;;;;;;;1.63;78.68;100226.22;5115676;28;20036;-65
2022/12/21 00:59:04;;;;;;;0.95;0.95;;;;;;;1.63;78.20;100215.34;5107846;28;20079;-65
2022/12/21 01:01:35;;;;;;;4.38;2.67;;;;;;;1.66;77.74;100212.91;5094167;28;20040;-66
2022/12/21 01:04:04;;;;;;;1.70;1.60;;;;;;;1.67;78.05;100202.09;5097389;28;20051;-66
2022/12/21 01:06:36;;;;;;;2.90;2.65;;;;;;;1.67;78.14;100192.03;5096060;28;20076;-65
2022/12/21 01:09:06;;;;;;;1.42;1.33;;;;;;;1.67;78.04;100192.03;5102918;28;20044;-65
2022/12/21 01:11:38;;;;;;;2.40;1.77;;;;;;;1.66;78.43;100195.31;5114687;28;20070;-65
2022/12/21 01:14:09;;;;;;;1.58;1.48;;;;;;;1.63;78.33;100205.28;5112164;28;20035;-65
2022/12/21 01:16:38;;;;;;;1.27;1.17;;;;;;;1.61;78.50;100206.88;5114696;28;20108;-65
2022/12/21 01:19:07;;;;;;;1.95;1.85;;;;;;;1.63;78.74;100205.28;5115829;28;20040;-65
2022/12/21 01:21:36;;;;;;;2.60;2.38;;;;;;;1.64;78.82;100201.94;5116145;28;20406;-65
2022/12/21 01:24:05;;;;;;;3.40;3.15;;;;;;;1.64;78.52;100212.88;5114231;28;20123;-65
2022/12/21 01:26:34;;;;;;;2.38;2.17;;;;;;;1.64;79.04;100217.91;5102775;28;20099;-65
2022/12/21 01:29:02;;;;;;;1.53;1.43;;;;;;;1.67;78.46;100202.09;5110483;28;20489;-65
2022/12/21 01:31:35;;;;;;;1.92;1.73;;;;;;;1.65;78.44;100194.47;5101310;28;20050;-65
2022/12/21 01:34:04;;;;;;;2.47;2.28;;;;;;;1.67;78.83;100202.09;5093923;28;20079;-65
2022/12/21 01:36:33;;;;;;;4.72;3.47;;;;;;;1.68;79.18;100191.25;5114267;28;20039;-65
2022/12/21 01:39:04;;;;;;;3.35;3.05;;;;;;;1.68;78.77;100178.66;5114013;28;20443;-65
2022/12/21 01:41:33;;;;;;;1.48;1.38;;;;;;;1.68;79.33;100181.19;5102286;28;20486;-65
2022/12/21 01:44:05;;;;;;;2.30;2.10;;;;;;;1.67;79.18;100172.75;5104932;28;20092;-65
2022/12/21 01:46:39;;;;;;;0.63;0.63;;;;;;;1.70;79.20;100182.09;5103787;28;20508;-66
2022/12/21 01:49:14;;;;;;;0.85;0.82;;;;;;;1.69;78.92;100175.31;5095868;28;20051;-65
2022/12/21 01:51:47;;;;;;;0.95;0.95;;;;;;;1.69;79.31;100177.84;5093983;28;20460;-65
2022/12/21 01:54:20;;;;;;;2.15;2.05;;;;;;;1.66;78.42;100176.06;5107116;28;20040;-65
2022/12/21 01:56:52;;;;;;;0.90;0.90;;;;;;;1.68;79.30;100173.63;5115160;28;20047;-66
2022/12/21 01:59:26;;;;;;;2.85;2.58;;;;;;;1.69;78.97;100175.31;5098342;28;20048;-65
2022/12/21 02:01:58;;;;;;;3.22;2.90;;;;;;;1.68;78.39;100169.44;5108920;28;20059;-65
2022/12/21 02:04:27;;;;;;;1.08;1.05;;;;;;;1.68;79.32;100159.38;5112366;28;20439;-65
2022/12/21 02:06:58;;;;;;;0.87;0.87;;;;;;;1.70;78.94;100146.88;5114101;28;20040;-65
2022/12/21 02:09:36;;;;;;;3.92;3.45;;;;;;;1.71;78.94;100133.47;5101679;28;20051;-65
2022/12/21 02:12:09;;;;;;;1.83;1.73;;;;;;;1.70;79.18;100134.28;5094171;28;20436;-66
2022/12/21 02:14:41;;;;;;;1.58;1.48;;;;;;;1.68;78.41;100138.41;5107268;28;20130;-66
2022/12/21 02:17:20;;;;;;;0.85;0.85;;;;;;;1.66;78.94;100145.88;5113151;28;20126;-66
2022/12/21 02:20:19;;;;;;;2.40;2.20;;;;;;;1.67;79.25;100151.78;5115012;28;20516;-65
2022/12/21 02:23:07;;;;;;;2.35;2.15;;;;;;;1.64;79.10;100127.34;5100264;28;20088;-66
2022/12/21 02:26:07;;;;;;;0.50;0.50;;;;;;;1.70;78.77;100121.72;5094375;28;20054;-65
2022/12/21 02:28:59;;;;;;;1.85;1.75;;;;;;;1.71;79.40;100125.94;5103997;28;20044;-65
2022/12/21 02:31:41;;;;;;;1.15;1.13;;;;;;;1.70;79.47;100111.66;5111911;28;20089;-66
2022/12/21 02:34:19;;;;;;;1.15;1.08;;;;;;;1.68;78.64;100113.25;5114361;28;20044;-66
2022/12/21 02:36:56;;;;;;;5.15;1.85;;;;;;;1.69;79.07;100114.94;5095953;28;20048;-65
2022/12/21 02:39:34;;;;;;;2.45;2.05;;;;;;;1.70;79.54;100107.50;5095146;28;20046;-66
2022/12/21 02:44:12;;;;;;;1.75;1.65;;;;;;;1.70;79.35;100109.13;5095610;28;20044;-65
2022/12/21 02:45:07;;;;;;;2.78;2.58;;;;;;;1.70;79.07;100101.59;5125292;27;20040;-65
2022/12/21 02:47:43;;;;;;;0.70;0.70;;;;;;;1.71;79.89;100113.34;5106855;28;20032;-65
2022/12/21 02:50:16;;;;;;;2.38;2.20;;;;;;;1.71;79.67;100108.31;5111680;28;20085;-65
2022/12/21 02:52:52;;;;;;;2.85;2.63;;;;;;;1.72;79.48;100105.03;5113439;28;20044;-66
2022/12/21 02:55:21;;;;;;;4.18;3.78;;;;;;;1.72;79.27;100120.13;5093439;28;20044;-66
2022/12/21 02:57:49;;;;;;;39.63;28.60;;;;;;;1.70;79.57;100127.63;5094884;28;20040;-66
2022/12/21 03:00:20;;;;;;;1.77;1.23;;;;;;;1.71;79.46;100136.88;5108751;28;20058;-65
2022/12/21 03:06:01;;;;;;;1.08;1.05;;;;;;;1.70;79.49;100137.69;5112469;28;20134;-67
2022/12/21 03:08:43;;;;;;;2.88;2.67;;;;;;;1.72;79.89;100140.25;5094646;28;20039;-65
2022/12/21 03:11:12;;;;;;;2.30;2.13;;;;;;;1.71;79.85;100144.41;5092753;28;20091;-65
2022/12/21 03:13:49;;;;;;;1.77;1.67;;;;;;;1.73;79.29;100146.97;5099106;28;20490;-65
2022/12/21 03:16:27;;;;;;;3.53;3.17;;;;;;;1.73;79.77;100152.88;5101924;28;20048;-65
2022/12/21 03:19:07;;;;;;;3.13;2.67;;;;;;;1.76;79.99;100152.16;5092701;28;20048;-65
2022/12/21 03:21:43;;;;;;;3.15;2.95;;;;;;;1.76;79.18;100144.59;5093003;28;20044;-65
2022/12/21 03:24:18;;;;;;;8.13;1.80;;;;;;;1.79;79.47;100148.13;5094855;28;20051;-65
2022/12/21 03:26:51;;;;;;;1.60;1.50;;;;;;;1.79;79.52;100153.16;5093192;28;20127;-65
2022/12/21 03:29:23;;;;;;;1.50;1.42;;;;;;;1.78;79.12;100135.44;5105850;28;20044;-65
2022/12/21 03:32:11;;;;;;;0.63;0.63;;;;;;;1.77;79.35;100141.31;5099920;28;20565;-65
2022/12/21 03:34:46;;;;;;;1.30;1.20;;;;;;;1.80;79.68;100146.47;5093423;28;20047;-65
2022/12/21 03:37:20;;;;;;;1.27;1.17;;;;;;;1.78;79.28;100137.97;5108034;28;20474;-65
2022/12/21 03:39:53;;;;;;;2.92;2.72;;;;;;;1.79;79.06;100132.16;5112275;28;20043;-66
2022/12/21 03:42:35;;;;;;;3.03;1.55;;;;;;;1.80;78.56;100136.41;5113694;28;20047;-65
2022/12/21 03:45:09;;;;;;;2.03;1.75;;;;;;;1.80;79.23;100133.88;5111755;28;20051;-67
2022/12/21 03:47:45;;;;;;;5.25;4.13;;;;;;;1.81;78.90;100140.63;5092683;28;20044;-66
2022/12/21 03:50:19;;;;;;;2.47;2.30;;;;;;;1.81;78.60;100141.47;5091655;28;20101;-65
2022/12/21 03:52:54;;;;;;;1.50;1.40;;;;;;;1.83;79.04;100139.03;5093241;28;20036;-65
2022/12/21 03:55:28;;;;;;;1.52;1.42;;;;;;;1.83;79.35;100139.03;5093290;28;20110;-66
2022/12/21 03:57:57;;;;;;;4.40;4.00;;;;;;;1.82;78.78;100132.28;5100445;28;20043;-66
2022/12/21 04:00:29;;;;;;;1.55;1.48;;;;;;;1.81;79.30;100138.09;5111060;28;20052;-66
2022/12/21 04:03:11;;;;;;;2.47;2.30;;;;;;;1.79;79.04;100142.22;5101349;28;20031;-65
2022/12/21 04:05:51;;;;;;;;;;;;;;;1.78;79.49;100131.28;5116397;28;20112;-65
2022/12/21 04:08:22;;;;;;;3.92;1.52;;;;;;;1.79;78.70;100122.09;5115779;28;19926;-65
2022/12/21 04:10:51;;;;;;;2.30;2.15;;;;;;;1.79;79.57;100120.44;5115960;28;20058;-65
2022/12/21 04:13:18;;;;;;;2.20;2.00;;;;;;;1.80;79.71;100111.25;5113316;28;20101;-65
2022/12/21 04:21:10;;;;;;;5.47;2.88;;;;;;;1.81;79.60;100112.94;5096885;28;20044;-65
2022/12/21 04:28:56;;;;;;;2.83;2.15;;;;;;;1.77;79.07;100118.66;5095563;28;20047;-65
2022/12/21 04:31:24;;;;;;;4.43;2.38;;;;;;;1.76;79.63;100116.94;5095635;28;20051;-66
2022/12/21 04:33:53;;;;;;;2.03;1.93;;;;;;;1.71;79.85;100105.81;5096306;28;20035;-65
2022/12/21 04:39:01;;;;;;;0.85;0.85;;;;;;;1.81;79.46;100106.25;5096037;28;20055;-65
2022/12/21 04:41:29;;;;;;;2.83;2.33;;;;;;;1.83;80.27;100088.69;5096227;28;20490;-65
2022/12/21 04:43:59;;;;;;;2.03;1.88;;;;;;;1.80;79.71;100094.47;5104080;28;20039;-66
2022/12/21 04:46:27;;;;;;;1.73;1.63;;;;;;;1.79;79.94;100092.75;5113570;28;20461;-65
2022/12/21 04:48:56;;;;;;;2.40;2.20;;;;;;;1.79;79.98;100086.88;5116004;28;20097;-65
2022/12/21 04:51:27;;;;;;;4.40;1.80;;;;;;;1.80;80.38;100083.56;5116270;28;20295;-65
2022/12/21 04:53:55;;;;;;;2.58;2.38;;;;;;;1.82;80.50;100092.03;5113832;28;20507;-66
2022/12/21 04:56:24;;;;;;;2.25;2.05;;;;;;;1.80;80.47;100084.41;5116601;28;20048;-66
2022/12/21 04:58:53;;;;;;;1.08;1.00;;;;;;;1.81;80.45;100095.31;5106711;28;20036;-65
2022/12/21 05:01:22;;;;;;;1.65;1.55;;;;;;;1.81;79.58;100101.22;5096079;28;20040;-66
2022/12/21 05:03:51;;;;;;;;;;;;;;;1.80;80.63;100099.50;5096502;28;20048;-65
2022/12/21 05:06:21;;;;;;;1.95;1.85;;;;;;;1.80;79.96;100102.00;5095088;28;19920;-65
2022/12/21 05:08:51;;;;;;;3.03;2.75;;;;;;;1.80;80.69;100093.63;5095494;28;20448;-65
2022/12/21 05:11:21;;;;;;;6.10;3.90;;;;;;;1.81;80.74;100090.28;5095395;28;20050;-65
2022/12/21 05:13:52;;;;;;;2.83;1.73;;;;;;;1.81;80.51;100090.28;5094932;28;20040;-65
2022/12/21 05:16:23;;;;;;;1.75;1.63;;;;;;;1.81;80.11;100076.06;5104361;28;20497;-65
2022/12/21 05:18:53;;;;;;;12.85;3.03;;;;;;;1.81;80.02;100071.03;5115953;28;20047;-65
2022/12/21 05:21:22;;;;;;;1.60;1.50;;;;;;;1.81;80.63;100067.66;5106492;28;20379;-65
2022/12/21 05:23:52;;;;;;;2.27;2.10;;;;;;;1.81;80.09;100075.19;5101634;28;20460;-65
2022/12/21 05:26:20;;;;;;;1.80;1.70;;;;;;;1.80;80.66;100071.81;5109668;28;20090;-65
2022/12/21 05:28:49;;;;;;;2.17;2.05;;;;;;;1.81;81.14;100070.16;5102167;28;20039;-65
2022/12/21 05:31:19;;;;;;;2.00;1.90;;;;;;;1.80;80.19;100068.47;5109182;28;20477;-66
2022/12/21 05:33:48;;;;;;;6.93;2.42;;;;;;;1.80;80.53;100058.41;5096592;28;20505;-65
2022/12/21 05:36:17;;;;;;;5.00;3.17;;;;;;;1.82;80.18;100056.81;5097326;28;20068;-65
2022/12/21 05:38:46;;;;;;;;;;;;;;;1.82;80.31;100054.28;5095862;28;20039;-65
2022/12/21 05:41:17;;;;;;;5.45;3.20;;;;;;;1.81;80.40;100052.56;5112535;28;20039;-65
2022/12/21 05:43:46;;;;;;;4.22;1.90;;;;;;;1.83;80.67;100048.44;5113687;28;20118;-65
2022/12/21 05:46:15;;;;;;;0.55;0.55;;;;;;;1.85;80.72;100059.41;5112662;28;20048;-65
2022/12/21 05:48:55;;;;;;;1.00;1.00;;;;;;;1.77;80.62;100051.59;5103446;28;20470;-66
2022/12/21 05:51:24;;;;;;;2.92;2.70;;;;;;;1.82;80.87;100071.91;5095911;28;20131;-66
2022/12/21 05:53:53;;;;;;;2.07;1.93;;;;;;;1.83;80.87;100083.66;5095369;28;20540;-66
2022/12/21 05:56:24;;;;;;;1.65;1.35;;;;;;;1.79;81.26;100067.59;5096257;28;20179;-65
2022/12/21 05:58:53;;;;;;;4.53;3.95;;;;;;;1.84;81.58;100075.34;5113437;28;20073;-66
2022/12/21 06:01:21;;;;;;;3.97;3.63;;;;;;;1.85;80.61;100079.56;5113294;28;20039;-65
2022/12/21 06:03:50;;;;;;;3.00;2.80;;;;;;;1.84;81.24;100075.34;5113963;28;20419;-66
2022/12/21 06:06:19;;;;;;;0.50;0.50;;;;;;;1.84;81.67;100077.84;5113808;28;20323;-65
2022/12/21 06:08:48;;;;;;;3.33;2.70;;;;;;;1.83;80.72;100079.50;5105467;28;20326;-65
2022/12/21 06:11:19;;;;;;;3.47;3.23;;;;;;;1.81;81.22;100076.06;5093858;28;20285;-65
2022/12/21 06:13:49;;;;;;;3.53;3.22;;;;;;;1.83;80.91;100088.69;5099940;28;20081;-65
2022/12/21 06:16:22;;;;;;;3.03;2.47;;;;;;;1.83;80.91;100091.22;5105771;28;20036;-65
2022/12/21 06:18:53;;;;;;;2.35;2.15;;;;;;;1.83;81.24;100098.75;5093455;28;20055;-66
2022/12/21 06:21:22;;;;;;;7.93;3.50;;;;;;;1.85;81.11;100087.09;5093348;28;20394;-65
2022/12/21 06:23:50;;;;;;;0.90;0.90;;;;;;;1.84;81.73;100070.31;5099513;28;20089;-65
2022/12/21 06:26:20;;;;;;;1.45;1.35;;;;;;;1.85;81.50;100082.06;5114559;28;20096;-65
2022/12/21 06:28:52;;;;;;;1.17;1.13;;;;;;;1.85;81.98;100074.50;5104307;28;20066;-65
2022/12/21 06:31:23;;;;;;;4.80;3.20;;;;;;;1.85;81.41;100074.50;5109539;28;20035;-65
2022/12/21 06:33:52;;;;;;;2.50;2.25;;;;;;;1.86;81.25;100073.72;5112928;28;20048;-65
2022/12/21 06:36:20;;;;;;;3.60;2.60;;;;;;;1.84;81.08;100067.78;5114665;28;20485;-65
2022/12/21 06:38:49;;;;;;;10.67;3.67;;;;;;;1.84;81.79;100068.66;5113669;28;20420;-65
2022/12/21 06:41:19;;;;;;;2.60;2.42;;;;;;;1.84;81.01;100067.78;5112125;28;20047;-69
2022/12/21 06:43:50;;;;;;;1.98;1.77;;;;;;;1.84;82.03;100060.22;5099895;28;20514;-65
2022/12/21 06:46:20;;;;;;;2.13;1.95;;;;;;;1.84;81.87;100060.22;5112097;28;20070;-66
2022/12/21 06:48:50;;;;;;;5.82;3.35;;;;;;;1.86;81.70;100063.66;5112280;28;20054;-66
2022/12/21 06:51:21;;;;;;;3.17;2.97;;;;;;;1.85;81.42;100061.94;5112213;28;20096;-65
2022/12/21 06:53:53;;;;;;;4.70;3.28;;;;;;;1.85;81.40;100051.88;5104291;28;20044;-65
2022/12/21 06:56:25;;;;;;;1.95;1.85;;;;;;;1.75;82.20;100034.72;5096768;28;20069;-67
2022/12/21 06:58:55;;;;;;;3.97;3.35;;;;;;;1.86;81.77;100046.06;5101458;28;20130;-66
2022/12/21 07:01:27;;;;;;;2.03;1.75;;;;;;;1.89;81.77;100047.03;5097442;28;20119;-65
2022/12/21 07:03:58;;;;;;;1.88;1.77;;;;;;;1.90;81.28;100051.25;5100176;28;20044;-65
2022/12/21 07:06:29;;;;;;;5.88;3.35;;;;;;;1.90;82.32;100042.84;5103401;28;20055;-65
2022/12/21 07:08:58;;;;;;;3.88;3.10;;;;;;;1.92;82.05;100028.69;5111861;28;20104;-65
2022/12/21 07:11:29;;;;;;;2.10;1.98;;;;;;;1.94;82.55;100037.16;5113304;28;20063;-67
2022/12/21 07:13:58;;;;;;;5.13;2.17;;;;;;;1.95;82.17;100034.69;5092775;28;20131;-65
2022/12/21 07:16:28;;;;;;;1.47;1.37;;;;;;;1.97;81.62;100037.25;5092553;28;20068;-66
2022/12/21 07:18:57;;;;;;;1.83;1.67;;;;;;;1.99;82.00;100051.63;5093485;28;20275;-65
2022/12/21 07:21:26;;;;;;;1.08;1.02;;;;;;;2.02;82.34;100050.88;5095167;28;20513;-65
2022/12/21 07:23:55;;;;;;;2.13;1.95;;;;;;;2.04;82.49;100055.16;5092834;28;20036;-65
2022/12/21 07:26:24;;;;;;;1.93;1.73;;;;;;;2.05;82.60;100056.03;5108889;28;20039;-65
2022/12/21 07:28:55;;;;;;;1.90;1.75;;;;;;;2.10;82.68;100066.28;5102257;28;20292;-65
2022/12/21 07:31:27;;;;;;;2.40;1.80;;;;;;;2.11;82.58;100061.31;5095540;28;20044;-65
2022/12/21 07:33:57;;;;;;;3.10;2.90;;;;;;;2.10;82.01;100064.63;5101957;28;20670;-65
2022/12/21 07:36:26;;;;;;;3.00;2.78;;;;;;;2.08;82.43;100071.28;5105465;28;20040;-65
2022/12/21 07:38:55;;;;;;;2.25;1.40;;;;;;;2.08;82.40;100066.22;5092010;28;20040;-65
2022/12/21 07:41:24;;;;;;;1.60;1.50;;;;;;;2.10;81.86;100077.22;5096875;28;20406;-66
2022/12/21 07:43:53;;;;;;;3.13;2.83;;;;;;;2.09;82.32;100072.13;5096710;28;20040;-66
2022/12/21 07:46:32;;;;;;;5.57;3.90;;;;;;;2.14;81.86;100080.69;5097605;28;20051;-65
2022/12/21 07:49:07;;;;;;;4.70;3.47;;;;;;;2.13;82.71;100074.81;5097156;28;20059;-66
2022/12/21 07:51:35;;;;;;;2.88;2.65;;;;;;;2.15;82.42;100068.19;5097068;28;20084;-66
2022/12/21 07:54:04;;;;;;;2.07;1.37;;;;;;;2.16;82.55;100066.53;5097449;28;20044;-65
2022/12/21 07:56:33;;;;;;;3.53;2.88;;;;;;;2.17;82.47;100056.50;5097187;28;20043;-66
2022/12/21 07:59:02;;;;;;;1.67;1.58;;;;;;;2.18;82.71;100053.22;5097465;28;20090;-66
2022/12/21 08:01:31;;;;;;;1.52;1.42;;;;;;;2.19;82.04;100059.94;5102380;28;20393;-66
2022/12/21 08:04:02;;;;;;;1.65;1.50;;;;;;;2.21;81.97;100060.03;5106170;28;20109;-66
2022/12/21 08:06:33;;;;;;;2.10;1.95;;;;;;;2.25;82.50;100061.84;5097527;28;20118;-66
2022/12/21 08:09:01;;;;;;;3.67;1.70;;;;;;;2.26;82.35;100068.59;5108146;28;20051;-66
2022/12/21 08:11:30;;;;;;;2.60;2.40;;;;;;;2.27;82.00;100067.78;5106156;28;20407;-65
2022/12/21 08:13:59;;;;;;;1.95;1.58;;;;;;;2.28;82.23;100065.31;5100935;28;20043;-66
2022/12/21 08:16:28;;;;;;;1.65;1.55;;;;;;;2.30;81.81;100062.88;5107591;28;20123;-66
2022/12/21 08:18:57;;;;;;;5.47;4.85;;;;;;;2.28;82.44;100050.22;5106078;28;20036;-66
2022/12/21 08:21:26;;;;;;;2.28;2.08;;;;;;;2.30;81.87;100053.69;5107443;28;20051;-66
2022/12/21 08:23:56;;;;;;;6.30;3.85;;;;;;;2.34;81.89;100059.66;5106364;28;20115;-66
2022/12/21 08:26:25;;;;;;;5.53;3.88;;;;;;;2.37;82.93;100054.75;5106160;28;20089;-66
2022/12/21 08:28:54;;;;;;;5.33;3.93;;;;;;;2.40;82.69;100045.63;5111628;28;20035;-66
2022/12/21 08:31:29;;;;;;;3.83;2.97;;;;;;;2.43;81.81;100050.78;5116327;28;20050;-68
2022/12/21 08:33:58;;;;;;;2.07;1.53;;;;;;;2.45;81.90;100049.19;5105919;28;20037;-65
2022/12/21 08:36:26;;;;;;;6.83;5.83;;;;;;;2.46;82.87;100043.38;5097210;28;20733;-65
2022/12/21 08:38:57;;;;;;;2.45;2.15;;;;;;;2.49;82.08;100046.00;5097739;28;20280;-66
2022/12/21 08:41:37;;;;;;;7.80;2.28;;;;;;;2.49;82.59;100043.50;5101430;28;20393;-65
2022/12/21 08:44:07;;;;;;;4.35;3.05;;;;;;;2.53;82.78;100045.31;5107165;28;20079;-66
2022/12/21 08:46:36;;;;;;;2.60;2.25;;;;;;;2.50;81.93;100027.56;5104480;28;20044;-66
2022/12/21 08:49:05;;;;;;;2.97;2.78;;;;;;;2.59;82.74;100048.03;5106681;28;20129;-66
2022/12/21 08:51:34;;;;;;;1.90;1.80;;;;;;;2.62;82.36;100043.13;5103195;28;20052;-66
2022/12/21 08:54:06;;;;;;;6.38;2.65;;;;;;;2.64;82.43;100035.59;5105646;28;20064;-65
2022/12/21 08:56:34;;;;;;;2.38;2.17;;;;;;;2.66;82.03;100034.84;5104205;28;20048;-66
2022/12/21 08:59:06;;;;;;;2.20;1.90;;;;;;;2.68;82.48;100037.44;5107454;28;20539;-66
2022/12/21 09:01:36;;;;;;;2.45;1.40;;;;;;;2.69;82.20;100034.97;5104706;28;20078;-67
2022/12/21 09:04:06;;;;;;;1.65;1.55;;;;;;;2.71;81.80;100033.38;5105773;28;20036;-65
2022/12/21 09:06:35;;;;;;;;;;;;;;;2.72;81.70;100036.75;5106876;28;20043;-66
2022/12/21 09:09:05;;;;;;;3.03;2.83;;;;;;;2.77;81.83;100036.91;5103950;28;19934;-65
2022/12/21 09:11:34;;;;;;;1.17;0.95;;;;;;;2.75;81.42;100036.00;5104688;28;20040;-65
2022/12/21 09:14:19;;;;;;;4.07;2.42;;;;;;;2.68;82.24;100037.44;5106375;28;20122;-66
2022/12/21 09:16:48;;;;;;;1.30;1.20;;;;;;;2.63;81.70;100036.41;5105277;28;20048;-66
2022/12/21 09:19:17;;;;;;;1.40;1.30;;;;;;;2.58;81.52;100031.22;5104437;28;20032;-65
2022/12/21 09:21:45;;;;;;;8.63;4.03;;;;;;;2.55;82.41;100033.63;5115223;27;20070;-66
2022/12/21 09:24:16;;;;;;;2.47;2.28;;;;;;;2.56;82.40;100019.38;5108357;28;20043;-66
2022/12/21 09:26:44;;;;;;;2.15;1.75;;;;;;;2.55;81.77;100017.63;5105880;28;20061;-66
2022/12/21 09:29:13;;;;;;;1.65;1.50;;;;;;;2.56;81.71;100022.75;5113116;28;20043;-65
2022/12/21 09:31:42;;;;;;;3.63;3.33;;;;;;;2.56;81.99;100022.75;5108906;28;20071;-66
2022/12/21 09:34:12;;;;;;;3.00;2.80;;;;;;;2.59;81.87;100020.31;5109475;28;20131;-66
2022/12/21 09:36:40;;;;;;;5.88;3.70;;;;;;;2.59;82.74;100010.25;5115537;28;20337;-65
2022/12/21 09:39:31;;;;;;;3.40;3.08;;;;;;;2.65;82.80;100007.97;5098415;28;20093;-65
2022/12/21 09:42:09;;;;;;;5.55;4.88;;;;;;;2.70;81.96;100003.94;5095167;28;20071;-66
2022/12/21 09:45:10;;;;;;;2.70;1.65;;;;;;;2.72;82.48;100004.84;5095334;28;20067;-66
2022/12/21 09:47:46;;;;;;;2.85;2.45;;;;;;;2.76;81.96;100015.06;5094441;28;20505;-66
2022/12/21 09:50:21;;;;;;;4.53;4.13;;;;;;;2.79;82.50;100010.09;5096233;28;20070;-65
2022/12/21 09:52:58;;;;;;;2.88;2.60;;;;;;;2.80;82.09;100016.88;5095395;28;20138;-65
2022/12/21 09:55:43;;;;;;;3.08;2.63;;;;;;;2.83;81.91;100011.94;5094992;28;20074;-65
2022/12/21 09:58:16;;;;;;;0.60;0.60;;;;;;;2.86;81.92;100017.06;5095170;28;20048;-65
2022/12/21 10:00:48;;;;;;;1.02;1.00;;;;;;;2.85;82.04;100011.19;5097753;28;20389;-65
2022/12/21 10:03:41;;;;;;;1.98;1.83;;;;;;;2.84;81.03;100006.94;5100631;28;20044;-66
2022/12/21 10:06:32;;;;;;;2.60;0.95;;;;;;;2.84;81.46;100008.59;5094512;28;20052;-65
2022/12/21 10:09:18;;;;;;;4.32;4.00;;;;;;;2.83;81.73;99996.81;5094403;28;20082;-65
2022/12/21 10:12:11;;;;;;;1.33;1.20;;;;;;;2.83;81.35;99997.69;5093839;28;20089;-66
2022/12/21 10:14:54;;;;;;;1.38;1.33;;;;;;;2.83;81.61;99991.78;5094558;28;20131;-65
2022/12/21 10:17:39;;;;;;;1.88;1.60;;;;;;;2.83;81.47;99986.75;5094842;28;20044;-66
2022/12/21 10:20:31;;;;;;;1.40;1.30;;;;;;;2.88;81.96;99985.25;5094367;28;20055;-66
2022/12/21 10:23:03;;;;;;;2.35;1.67;;;;;;;2.91;81.40;99980.28;5097850;28;20048;-65
2022/12/21 10:25:44;;;;;;;4.55;3.15;;;;;;;2.92;81.98;99976.97;5113682;28;20093;-65
2022/12/21 10:28:26;;;;;;;3.10;2.88;;;;;;;2.97;82.00;99972.94;5106081;28;20044;-65
2022/12/21 10:31:03;;;;;;;9.32;2.67;;;;;;;3.01;82.24;99977.28;5102081;28;20044;-66
2022/12/21 10:33:37;;;;;;;2.28;2.10;;;;;;;3.03;81.86;99970.63;5096312;28;20101;-66
2022/12/21 10:36:14;;;;;;;7.05;2.65;;;;;;;3.04;81.16;99975.72;5104253;28;20053;-66
2022/12/21 10:38:43;;;;;;;2.75;1.83;;;;;;;3.06;81.55;99975.78;5104922;28;20502;-65
2022/12/21 10:41:18;;;;;;;2.83;2.15;;;;;;;3.06;81.09;99966.53;5096305;28;20052;-66
2022/12/21 10:43:50;;;;;;;5.03;3.17;;;;;;;3.08;81.71;99964.94;5100719;28;20206;-66
2022/12/21 10:46:20;;;;;;;2.13;1.92;;;;;;;3.11;81.36;99964.19;5096619;28;20051;-66
2022/12/21 10:48:56;;;;;;;2.38;2.15;;;;;;;3.10;80.82;99962.44;5096865;28;20040;-65
2022/12/21 10:51:33;;;;;;;3.40;3.10;;;;;;;3.11;80.84;99964.19;5093189;28;20052;-65
2022/12/21 10:54:04;;;;;;;9.27;4.15;;;;;;;3.12;81.63;99981.88;5093930;28;20054;-66
2022/12/21 10:56:35;;;;;;;4.65;2.78;;;;;;;3.16;81.60;99965.19;5093763;28;20056;-66
2022/12/21 10:59:16;;;;;;;2.47;2.28;;;;;;;3.18;81.40;99961.91;5095780;28;20048;-66
2022/12/21 11:01:45;;;;;;;3.60;3.30;;;;;;;3.21;80.91;99963.69;5105891;28;20047;-66
2022/12/21 11:04:17;;;;;;;8.65;4.60;;;;;;;3.23;81.48;99959.53;5113846;28;20047;-64
2022/12/21 11:06:59;;;;;;;2.17;2.05;;;;;;;3.22;80.98;99955.28;5112776;28;20050;-66
2022/12/21 11:09:56;;;;;;;3.17;2.97;;;;;;;3.23;81.05;99950.31;5104515;28;20077;-66
2022/12/21 11:12:51;;;;;;;1.70;1.60;;;;;;;3.26;81.07;99954.59;5097698;28;20478;-66
2022/12/21 11:15:25;;;;;;;3.85;2.95;;;;;;;3.26;80.76;99944.50;5092927;28;20044;-65
2022/12/21 11:18:41;;;;;;;2.97;2.72;;;;;;;3.26;80.95;99945.34;5093275;28;20051;-66
2022/12/21 11:21:35;;;;;;;8.63;4.22;;;;;;;3.28;80.59;99952.97;5090961;28;20497;-66
2022/12/21 11:24:12;;;;;;;2.15;2.05;;;;;;;3.28;80.59;99942.88;5089159;28;20076;-66
2022/12/21 11:26:45;;;;;;;6.55;5.15;;;;;;;3.27;80.58;99936.13;5093436;28;20482;-65
2022/12/21 11:29:21;;;;;;;5.25;4.68;;;;;;;3.27;80.64;99936.13;5093661;28;20047;-65
2022/12/21 11:32:05;;;;;;;8.57;6.80;;;;;;;3.27;81.00;99936.13;5092825;28;20068;-65
2022/12/21 11:34:39;;;;;;;12.65;5.50;;;;;;;3.25;80.51;99927.66;5093305;28;20056;-66
2022/12/21 11:37:23;;;;;;;3.55;3.25;;;;;;;3.26;80.32;99924.34;5106268;28;20040;-66
2022/12/21 11:39:52;;;;;;;3.85;3.42;;;;;;;3.28;81.00;99920.19;5092505;28;20074;-66
2022/12/21 11:42:22;;;;;;;6.77;5.67;;;;;;;3.27;81.02;99921.00;5093471;28;20131;-66
2022/12/21 11:44:53;;;;;;;2.72;2.50;;;;;;;3.28;80.95;99917.69;5093130;28;20296;-66
2022/12/21 11:47:37;;;;;;;5.15;3.25;;;;;;;3.28;80.96;99908.44;5095706;28;20071;-66
2022/12/21 11:50:28;;;;;;;3.45;3.17;;;;;;;3.30;80.37;99908.50;5112047;28;20046;-66
2022/12/21 11:53:15;;;;;;;4.63;4.20;;;;;;;3.32;80.86;99894.25;5101236;28;20044;-66
2022/12/21 11:55:56;;;;;;;1.08;1.05;;;;;;;3.34;80.45;99900.19;5113728;28;20474;-65
2022/12/21 11:58:38;;;;;;;1.80;1.70;;;;;;;3.37;80.78;99897.78;5113469;28;20494;-66
2022/12/21 12:01:19;;;;;;;4.20;3.63;;;;;;;3.37;80.25;99898.66;5113363;28;20047;-66
2022/12/21 12:04:05;;;;;;;2.50;2.05;;;;;;;3.38;80.04;99894.47;5105345;28;20046;-66
2022/12/21 12:07:05;;;;;;;8.73;4.72;;;;;;;3.42;80.44;99885.31;5099437;28;20470;-66
2022/12/21 12:10:03;;;;;;;2.33;2.13;;;;;;;3.42;80.24;99885.31;5103070;28;20051;-66
2022/12/21 12:12:42;;;;;;;3.80;2.42;;;;;;;3.41;80.46;99886.97;5110554;28;20489;-65
2022/12/21 12:15:29;;;;;;;2.05;1.83;;;;;;;3.40;79.77;99887.78;5102703;28;20039;-67
2022/12/21 12:18:15;;;;;;;2.78;1.95;;;;;;;3.42;80.02;99892.88;5101851;28;20127;-66
2022/12/21 12:21:03;;;;;;;3.80;2.92;;;;;;;3.44;79.56;99907.25;5102887;28;20058;-65
2022/12/21 12:23:41;;;;;;;4.35;2.05;;;;;;;3.41;80.01;99898.75;5105325;28;20039;-66